PWSweather.com
Personal Weather Stations
Station Observations
SWHWX01
St AppolinardFR 38160

St AppolinardFR 38160

Lat: 45.191, Lon: 5.268

Elevation: 1460

Station Type: Davis Vantage Pro2 Plus

www.sweetwebhome.com/?show=wxindex

High Low Average
Temperature 50.1°F10.1°C 44.3°F6.8°C 46.8°F8.2°C
Dew Point 45.5°F7.5°C 41.2°F5.1°C 43.4°F6.3°C
Winds 11.8 mph 19.0 kmh Calm Calm 2.0 mph SW3.2 kmh SW
Wind Gusts 16.0 mph25.7 kmh -- 4.0 mph6.4 kmh
Humidity 95% 74% 88%
Pressure 29.94 in1013.9 mb 29.89 in1012.2 mb -
Precipitation 0.07 in1.8 mm - -
Hour Temp Dew Point Humidity Winds Wind Gusts Pressure Precip Precip Rate Daily Precip Total
12:00 AM 45.7°F7.6°C 43.8°F6.6°C 93% 1.8 mph W2.9 kmh W 2.0 mph3.2 kmh 29.91 in1012.9 mb - 0.00 in0.0 mm 0.00 in0.0 mm
12:30 AM 45.8°F7.7°C 43.6°F6.4°C 92% 2.4 mph W3.9 kmh W 3.0 mph4.8 kmh 29.91 in1012.9 mb - 0.00 in0.0 mm 0.00 in0.0 mm
01:00 AM 45.8°F7.7°C 43.6°F6.4°C 92% 2.3 mph W3.7 kmh W 3.0 mph4.8 kmh 29.90 in1012.5 mb - 0.00 in0.0 mm 0.00 in0.0 mm
01:30 AM 45.5°F7.5°C 43.3°F6.3°C 92% 2.7 mph W4.3 kmh W 3.0 mph4.8 kmh 29.89 in1012.2 mb - 0.00 in0.0 mm 0.00 in0.0 mm
02:00 AM 45.9°F7.7°C 43.1°F6.2°C 90% 0.1 mph W0.2 kmh W 1.0 mph1.6 kmh 29.89 in1012.2 mb - 0.00 in0.0 mm 0.00 in0.0 mm
02:30 AM 45.8°F7.7°C 43.3°F6.3°C 91% 1.9 mph W3.1 kmh W 3.0 mph4.8 kmh 29.90 in1012.5 mb - 0.00 in0.0 mm 0.00 in0.0 mm
03:00 AM 45.9°F7.7°C 43.4°F6.3°C 91% 0.1 mph WNW0.2 kmh WNW -- 29.90 in1012.5 mb - 0.00 in0.0 mm 0.00 in0.0 mm
03:30 AM 45.6°F7.6°C 43.4°F6.3°C 92% 0.1 mph WNW0.2 kmh WNW -- 29.90 in1012.5 mb - 0.01 in0.3 mm 0.01 in0.3 mm
04:00 AM 45.4°F7.4°C 43.5°F6.4°C 93% Calm Calm 1.0 mph1.6 kmh 29.90 in1012.5 mb - 0.00 in0.0 mm 0.01 in0.3 mm
04:30 AM 45.4°F7.4°C 43.5°F6.4°C 93% Calm Calm -- 29.90 in1012.5 mb - 0.01 in0.3 mm 0.02 in0.5 mm
05:00 AM 45.3°F7.4°C 43.4°F6.3°C 93% Calm Calm -- 29.89 in1012.2 mb - 0.00 in0.0 mm 0.02 in0.5 mm
05:30 AM 44.9°F7.2°C 43.0°F6.1°C 93% 0.2 mph WNW0.3 kmh WNW 2.0 mph3.2 kmh 29.89 in1012.2 mb - 0.00 in0.0 mm 0.02 in0.5 mm
06:00 AM 44.7°F7.1°C 42.8°F6.0°C 93% 0.8 mph WNW1.3 kmh WNW 3.0 mph4.8 kmh 29.90 in1012.5 mb - 0.00 in0.0 mm 0.02 in0.5 mm
06:30 AM 44.3°F6.8°C 42.1°F5.6°C 92% 3.5 mph NNW5.6 kmh NNW 5.0 mph8.0 kmh 29.90 in1012.5 mb - 0.00 in0.0 mm 0.02 in0.5 mm
07:00 AM 44.7°F7.1°C 42.3°F5.7°C 91% 3.7 mph NNE6.0 kmh NNE 4.0 mph6.4 kmh 29.91 in1012.9 mb - 0.00 in0.0 mm 0.02 in0.5 mm
07:30 AM 45.2°F7.3°C 42.7°F5.9°C 91% 2.4 mph N3.9 kmh N 6.0 mph9.7 kmh 29.92 in1013.2 mb - 0.00 in0.0 mm 0.02 in0.5 mm
08:00 AM 45.4°F7.4°C 42.6°F5.9°C 90% 4.2 mph N6.8 kmh N 6.0 mph9.7 kmh 29.93 in1013.5 mb - 0.00 in0.0 mm 0.02 in0.5 mm
08:30 AM 46.7°F8.2°C 43.9°F6.6°C 90% 5.4 mph N8.7 kmh N 10.0 mph16.1 kmh 29.92 in1013.2 mb - 0.00 in0.0 mm 0.02 in0.5 mm
09:00 AM 46.5°F8.1°C 43.1°F6.2°C 88% 4.0 mph N6.4 kmh N 6.0 mph9.7 kmh 29.92 in1013.2 mb - 0.01 in0.3 mm 0.02 in0.5 mm
09:30 AM 45.9°F7.7°C 41.9°F5.5°C 86% 9.1 mph N14.6 kmh N 10.0 mph16.1 kmh 29.92 in1013.2 mb - 0.00 in0.0 mm 0.02 in0.5 mm
10:00 AM 46.0°F7.8°C 42.1°F5.6°C 86% 5.0 mph NNW8.0 kmh NNW 9.0 mph14.5 kmh 29.93 in1013.5 mb - 0.00 in0.0 mm 0.02 in0.5 mm
10:30 AM 46.0°F7.8°C 41.7°F5.4°C 85% 7.9 mph N12.7 kmh N 11.0 mph17.7 kmh 29.93 in1013.5 mb - 0.00 in0.0 mm 0.02 in0.5 mm
11:00 AM 46.3°F7.9°C 41.4°F5.2°C 83% 3.5 mph NNW5.6 kmh NNW 10.0 mph16.1 kmh 29.94 in1013.9 mb - 0.00 in0.0 mm 0.02 in0.5 mm
11:30 AM 47.7°F8.7°C 42.4°F5.8°C 82% 6.2 mph N10.0 kmh N 16.0 mph25.7 kmh 29.94 in1013.9 mb - 0.00 in0.0 mm 0.02 in0.5 mm
12:00 PM 48.5°F9.2°C 41.9°F5.5°C 78% 11.8 mph N19.0 kmh N 16.0 mph25.7 kmh 29.93 in1013.5 mb - 0.00 in0.0 mm 0.02 in0.5 mm
12:30 PM 48.9°F9.4°C 42.0°F5.6°C 77% 2.4 mph NNW3.9 kmh NNW 10.0 mph16.1 kmh 29.93 in1013.5 mb - 0.00 in0.0 mm 0.02 in0.5 mm
01:00 PM 48.7°F9.3°C 42.1°F5.6°C 78% 4.8 mph NW7.7 kmh NW 12.0 mph19.3 kmh 29.93 in1013.5 mb - 0.00 in0.0 mm 0.02 in0.5 mm
01:30 PM 48.7°F9.3°C 41.8°F5.4°C 77% 6.0 mph NW9.7 kmh NW 12.0 mph19.3 kmh 29.93 in1013.5 mb - 0.00 in0.0 mm 0.02 in0.5 mm
02:00 PM 48.8°F9.3°C 41.2°F5.1°C 75% 4.9 mph NW7.9 kmh NW 8.0 mph12.9 kmh 29.93 in1013.5 mb - 0.00 in0.0 mm 0.02 in0.5 mm
02:30 PM 49.7°F9.8°C 41.7°F5.4°C 74% 6.0 mph NNW9.7 kmh NNW 8.0 mph12.9 kmh 29.93 in1013.5 mb - 0.00 in0.0 mm 0.02 in0.5 mm
03:00 PM 50.1°F10.1°C 42.1°F5.6°C 74% 1.3 mph NNW2.1 kmh NNW 3.0 mph4.8 kmh 29.92 in1013.2 mb - 0.00 in0.0 mm 0.02 in0.5 mm
03:30 PM 49.0°F9.4°C 44.4°F6.9°C 84% 0.9 mph SSE1.4 kmh SSE 1.0 mph1.6 kmh 29.91 in1012.9 mb - 0.00 in0.0 mm 0.02 in0.5 mm
04:00 PM 48.3°F9.1°C 44.6°F7.0°C 87% 1.9 mph SSE3.1 kmh SSE 2.0 mph3.2 kmh 29.91 in1012.9 mb - 0.00 in0.0 mm 0.02 in0.5 mm
04:30 PM 48.5°F9.2°C 44.8°F7.1°C 87% 1.2 mph SSE1.9 kmh SSE 3.0 mph4.8 kmh 29.91 in1012.9 mb - 0.00 in0.0 mm 0.02 in0.5 mm
05:00 PM 48.6°F9.2°C 44.9°F7.2°C 87% 1.1 mph SSE1.8 kmh SSE 2.0 mph3.2 kmh 29.91 in1012.9 mb - 0.00 in0.0 mm 0.02 in0.5 mm
05:30 PM 48.4°F9.1°C 45.3°F7.4°C 89% 0.1 mph SSE0.2 kmh SSE -- 29.91 in1012.9 mb - 0.00 in0.0 mm 0.02 in0.5 mm
06:00 PM 48.5°F9.2°C 45.4°F7.4°C 89% 1.2 mph SSE1.9 kmh SSE 2.0 mph3.2 kmh 29.90 in1012.5 mb - 0.00 in0.0 mm 0.02 in0.5 mm
06:30 PM 48.0°F8.9°C 45.5°F7.5°C 91% 1.8 mph SSE2.9 kmh SSE 2.0 mph3.2 kmh 29.90 in1012.5 mb - 0.00 in0.0 mm 0.02 in0.5 mm
07:00 PM 48.0°F8.9°C 45.5°F7.5°C 91% Calm Calm -- 29.90 in1012.5 mb - 0.00 in0.0 mm 0.02 in0.5 mm
07:30 PM 47.4°F8.6°C 45.5°F7.5°C 93% 1.4 mph SSE2.3 kmh SSE 2.0 mph3.2 kmh 29.91 in1012.9 mb - 0.01 in0.3 mm 0.03 in0.8 mm
08:00 PM 46.6°F8.1°C 44.7°F7.1°C 93% 0.7 mph SSE1.1 kmh SSE 2.0 mph3.2 kmh 29.92 in1013.2 mb - 0.00 in0.0 mm 0.03 in0.8 mm
08:30 PM 46.1°F7.8°C 44.4°F6.9°C 94% Calm Calm -- 29.92 in1013.2 mb - 0.02 in0.5 mm 0.06 in1.5 mm
09:00 PM 46.0°F7.8°C 44.4°F6.9°C 94% Calm Calm -- 29.93 in1013.5 mb - 0.01 in0.3 mm 0.06 in1.5 mm
09:30 PM 45.9°F7.7°C 44.3°F6.8°C 94% Calm Calm -- 29.93 in1013.5 mb - 0.00 in0.0 mm 0.06 in1.5 mm
10:00 PM 46.0°F7.8°C 44.3°F6.8°C 94% Calm Calm -- 29.93 in1013.5 mb - 0.01 in0.3 mm 0.07 in1.8 mm
10:30 PM 45.8°F7.7°C 44.4°F6.9°C 95% Calm Calm -- 29.92 in1013.2 mb - 0.00 in0.0 mm 0.07 in1.8 mm
11:00 PM 45.9°F7.7°C 44.5°F6.9°C 95% Calm Calm -- 29.91 in1012.9 mb - 0.00 in0.0 mm 0.08 in2.0 mm
11:30 PM 45.9°F7.7°C 44.5°F6.9°C 95% Calm Calm -- 29.91 in1012.9 mb - 0.00 in0.0 mm 0.08 in2.0 mm